Terminal Aerodrome Forecast
Issued by NWS

Home | Current Version | Previous Version | Text Only | Print | Product List | Glossary On
Versions: 1 2 3 4 5 6 7 8 9 10 11 12 13 14 15 16 17 18 19 20 21 22 23 24 25 26 27 28 29 30 31 32 33 34 35 36 37
000
FTUS46 KPQR 131734
TAFONP
TAF
KONP 131734Z 1318/1418 16007KT P6SM BKN100
     FM132100 19012KT 6SM -RA SCT020 OVC040
     FM132300 19012G20KT 4SM -RA BR BKN015 OVC025
     FM140200 20020G30KT 2SM RA BR BKN005 OVC011
     FM140800 22017G25KT 2SM RA BR OVC005
     FM141200 22014G22KT 3SM -RA BR SCT005 OVC012=

USA.gov is the U.S. government's official web portal to all federal, state and local government web resources and services.